Frost, Texas
Current Conditions -  °F | °C
As of 12:55 AM on Monday 22 Dec 2014 (Local Time) from KINJ Reporting Station
Overcast Overcast  
Wind Chill: 55°   Ceiling: 1600
Heat Index: 55°   Visibility: 10mi
Dew Point: 49°   Wind: 21mph
Humidity: 83%   Direction: 180°S
Pressure: 29.72"   Gusts: 26mph
Location:  32.08°N, 96.81°W
Report Text: KINJ 220655Z AUTO 18018G23KT 10SM OVC016 13/10 A2972 RMK AO2 T01250096
Loading
Personal Weather Stations






























Interactive Weather Map New forecast layout! Learn more

10-Day Weather Forecast

Advertisements
Track Severe Weather on mobile